Time;durP1;ratioP1;P1;durP2;ratioP2;P2;SDS_P1;SDS_P2;PMS_P1;PMS_P2;Temp;Humidity;BMP_temperature;BMP_pressure;BME280_temperature;BME280_humidity;BME280_pressure;Samples;Min_cycle;Max_cycle;Signal;HPM_P1;HPM_P2
2023/04/29 00:00:02;;;;;;;5.72;5.28;;;10.70;99.90;;;11.43;100.00;97577.88;5117003;28;20668;-62
2023/04/29 00:02:35;;;;;;;5.78;5.05;;;10.70;99.90;;;11.42;100.00;97582.94;5114139;28;20209;-62
2023/04/29 00:05:10;;;;;;;5.78;5.28;;;10.70;99.90;;;11.40;100.00;97574.31;5118826;28;20296;-66
2023/04/29 00:07:43;;;;;;;6.00;5.40;;;10.60;99.90;;;11.30;100.00;97578.06;5114726;28;20200;-63
2023/04/29 00:10:16;;;;;;;8.85;6.80;;;10.60;99.90;;;11.22;100.00;97572.59;5112000;28;20208;-63
2023/04/29 00:12:50;;;;;;;9.48;6.63;;;10.50;99.90;;;11.22;100.00;97577.72;5113255;28;20201;-63
2023/04/29 00:15:23;;;;;;;7.95;6.38;;;10.50;99.90;;;11.25;100.00;97570.19;5110476;28;20220;-65
2023/04/29 00:17:56;;;;;;;8.88;6.65;;;10.50;99.90;;;11.18;100.00;97565.56;5111005;28;20205;-62
2023/04/29 00:20:30;;;;;;;7.63;6.88;;;10.50;99.90;;;11.19;100.00;97564.78;5105349;28;20229;-66
2023/04/29 00:23:03;;;;;;;10.85;6.65;;;10.50;99.90;;;11.16;100.00;97571.38;5112161;28;20584;-64
2023/04/29 00:25:37;;;;;;;9.50;6.70;;;10.50;99.90;;;11.16;100.00;97564.63;5111075;28;20642;-63
2023/04/29 00:28:11;;;;;;;8.10;6.30;;;10.50;99.90;;;11.17;100.00;97565.50;5127983;28;20239;-63
2023/04/29 00:30:44;;;;;;;6.95;5.95;;;10.50;99.90;;;11.14;100.00;97571.34;5114429;28;20295;-64
2023/04/29 00:33:17;;;;;;;7.07;6.38;;;10.50;99.90;;;11.09;100.00;97565.09;5114857;28;20216;-63
2023/04/29 00:35:51;;;;;;;6.30;5.22;;;10.40;99.90;;;11.09;100.00;97574.47;5116259;28;20201;-64
2023/04/29 00:38:25;;;;;;;7.53;6.60;;;10.40;99.90;;;11.14;100.00;97571.34;5115322;28;20235;-68
2023/04/29 00:40:58;;;;;;;9.70;7.43;;;10.50;99.90;;;11.17;100.00;97570.59;5117726;28;20275;-63
2023/04/29 00:43:31;;;;;;;7.95;7.05;;;10.40;99.90;;;11.14;100.00;97573.00;5114951;28;20212;-65
2023/04/29 00:46:04;;;;;;;7.50;6.50;;;10.40;99.90;;;11.11;100.00;97571.19;5116339;28;20208;-64
2023/04/29 00:48:37;;;;;;;6.85;6.07;;;10.40;99.90;;;11.05;100.00;97565.75;5115993;28;20231;-67
2023/04/29 00:51:11;;;;;;;7.22;6.43;;;10.40;99.90;;;11.08;100.00;97575.28;5113457;28;20200;-63
2023/04/29 00:53:45;;;;;;;8.48;7.05;;;10.40;99.90;;;11.02;100.00;97573.28;5113718;28;20200;-68
2023/04/29 00:56:21;;;;;;;6.68;6.00;;;10.30;99.90;;;11.00;100.00;97574.88;5123138;28;20263;-64
2023/04/29 00:58:55;;;;;;;7.72;6.57;;;10.30;99.90;;;10.97;100.00;97578.16;5115095;28;20311;-63
2023/04/29 01:01:29;;;;;;;6.72;6.13;;;10.20;99.90;;;10.97;100.00;97582.41;5116441;28;20609;-64
2023/04/29 01:04:04;;;;;;;6.78;6.13;;;10.20;99.90;;;10.93;100.00;97581.38;5114860;28;20567;-64
2023/04/29 01:06:53;;;;;;;6.63;5.97;;;10.20;99.90;;;10.84;100.00;97578.31;5116329;28;20204;-63
2023/04/29 01:09:53;;;;;;;6.78;6.03;;;10.10;99.90;;;10.81;100.00;97586.69;5117119;28;20635;-67
2023/04/29 01:12:35;;;;;;;5.63;5.13;;;10.10;99.90;;;10.78;100.00;97591.66;5117508;28;20341;-65
2023/04/29 01:15:17;;;;;;;6.10;5.53;;;10.10;99.90;;;10.75;100.00;97591.50;5115523;28;20587;-65
2023/04/29 01:17:56;;;;;;;5.53;5.07;;;10.00;99.90;;;10.69;100.00;97596.31;5109618;28;20209;-68
2023/04/29 01:20:31;;;;;;;6.30;5.72;;;10.00;99.90;;;10.65;100.00;97598.63;5116732;28;20200;-66
2023/04/29 01:23:05;;;;;;;6.03;5.43;;;9.90;99.90;;;10.60;100.00;97600.94;5132142;28;20216;-65
2023/04/29 01:25:40;;;;;;;5.93;5.43;;;9.80;99.90;;;10.60;100.00;97591.59;5114086;28;20200;-66
2023/04/29 01:28:27;;;;;;;5.85;5.25;;;9.80;99.90;;;10.53;100.00;97598.84;5111881;28;20224;-66
2023/04/29 01:31:08;;;;;;;5.05;4.65;;;9.80;99.90;;;10.51;100.00;97601.34;5109507;29;20215;-66
2023/04/29 01:33:48;;;;;;;5.82;5.32;;;9.70;99.90;;;10.48;100.00;97600.31;5114223;28;20207;-65
2023/04/29 01:36:34;;;;;;;5.65;5.20;;;9.80;99.90;;;10.45;100.00;97600.13;5113734;28;20201;-65
2023/04/29 01:39:14;;;;;;;5.38;4.90;;;9.70;99.90;;;10.44;100.00;97598.34;5114928;28;20235;-63
2023/04/29 01:41:58;;;;;;;5.13;4.72;;;9.70;99.90;;;10.42;100.00;97600.84;5116982;28;20322;-63
2023/04/29 01:44:34;;;;;;;4.93;4.53;;;9.70;99.90;;;10.37;100.00;97595.47;5115069;28;20212;-66
2023/04/29 01:47:09;;;;;;;4.97;4.55;;;9.60;99.90;;;10.34;100.00;97600.44;5113961;29;20209;-66
2023/04/29 01:49:42;;;;;;;5.22;4.80;;;9.60;99.90;;;10.33;100.00;97597.78;5109355;28;20226;-67
2023/04/29 01:52:15;;;;;;;7.35;5.00;;;9.60;99.90;;;10.32;100.00;97602.00;5112160;28;20568;-65
2023/04/29 01:54:48;;;;;;;4.78;4.35;;;9.60;99.90;;;10.26;100.00;97599.09;5125330;28;20309;-66
2023/04/29 01:57:22;;;;;;;5.55;5.05;;;9.50;99.90;;;10.24;100.00;97604.91;5109572;29;20208;-66
2023/04/29 01:59:56;;;;;;;5.25;4.75;;;9.50;99.90;;;10.26;100.00;97603.34;5111889;28;20224;-65
2023/04/29 02:02:29;;;;;;;4.72;4.18;;;9.50;99.90;;;10.26;100.00;97599.09;5143662;28;20224;-65
2023/04/29 02:05:02;;;;;;;4.93;4.53;;;9.60;99.90;;;10.25;100.00;97589.69;5113265;28;20216;-65
2023/04/29 02:07:35;;;;;;;4.75;4.35;;;9.50;99.90;;;10.29;100.00;97603.53;5112126;28;20567;-64
2023/04/29 02:10:09;;;;;;;4.82;4.40;;;9.60;99.90;;;10.28;100.00;97592.44;5105114;28;20228;-66
2023/04/29 02:12:43;;;;;;;5.65;5.15;;;9.60;99.90;;;10.25;100.00;97591.38;5116798;28;20196;-65
2023/04/29 02:15:17;;;;;;;5.32;4.80;;;9.50;99.90;;;10.22;100.00;97592.09;5112941;28;20211;-64
2023/04/29 02:17:50;;;;;;;6.20;4.93;;;9.50;99.90;;;10.22;100.00;97589.53;5114575;28;20209;-63
2023/04/29 02:20:23;;;;;;;5.18;4.68;;;9.50;99.90;;;10.19;100.00;97586.81;5115473;28;20230;-63
2023/04/29 02:22:56;;;;;;;5.90;5.22;;;9.50;99.90;;;10.23;100.00;97588.72;5119607;28;20702;-62
2023/04/29 02:25:29;;;;;;;5.85;4.95;;;9.50;99.90;;;10.21;100.00;97592.00;5110921;28;20211;-64
2023/04/29 02:28:03;;;;;;;5.97;4.80;;;9.50;99.90;;;10.17;100.00;97588.41;5112544;28;20228;-64
2023/04/29 02:30:36;;;;;;;4.95;4.45;;;9.40;99.90;;;10.19;100.00;97597.03;5114414;28;20212;-67
2023/04/29 02:33:10;;;;;;;5.70;4.85;;;9.50;99.90;;;10.16;100.00;97599.41;5116582;28;20199;-63
2023/04/29 02:35:43;;;;;;;5.13;4.70;;;9.40;99.90;;;10.12;100.00;97605.13;5117446;28;20246;-66
2023/04/29 02:38:16;;;;;;;4.82;4.22;;;9.40;99.90;;;10.11;100.00;97593.19;5117679;29;20235;-64
2023/04/29 02:40:49;;;;;;;6.03;5.30;;;9.40;99.90;;;10.09;100.00;97602.41;5118716;28;20583;-62
2023/04/29 02:43:23;;;;;;;6.35;4.63;;;9.40;99.90;;;10.09;100.00;97599.88;5117984;28;20236;-63
2023/04/29 02:45:56;;;;;;;7.28;5.10;;;9.30;99.90;;;10.01;100.00;97599.44;5121888;28;20200;-65
2023/04/29 02:48:29;;;;;;;6.15;4.85;;;9.30;99.90;;;10.02;100.00;97602.91;5114259;28;20221;-67
2023/04/29 02:51:03;;;;;;;7.15;4.53;;;9.40;99.90;;;10.05;100.00;97597.97;5118852;28;20682;-65
2023/04/29 02:53:36;;;;;;;6.55;4.75;;;9.40;99.90;;;10.06;100.00;97604.81;5119138;28;20472;-68
2023/04/29 02:56:09;;;;;;;5.10;4.20;;;9.40;99.90;;;10.10;100.00;97599.97;5114449;28;20209;-65
2023/04/29 02:58:43;;;;;;;6.82;4.82;;;9.40;99.90;;;10.12;100.00;97605.13;5116844;28;20224;-65
2023/04/29 03:01:16;;;;;;;7.50;5.38;;;9.40;99.90;;;10.14;100.00;97606.13;5117561;28;20243;-65
2023/04/29 03:03:49;;;;;;;6.10;5.13;;;9.50;99.90;;;10.13;100.00;97596.69;5118433;28;20228;-66
2023/04/29 03:06:22;;;;;;;4.75;4.35;;;9.40;99.90;;;10.14;100.00;97595.91;5119762;28;20610;-68
2023/04/29 03:08:56;;;;;;;5.25;4.35;;;9.50;99.90;;;10.15;100.00;97602.75;5117187;28;20228;-66
2023/04/29 03:11:29;;;;;;;4.80;4.40;;;9.50;99.90;;;10.17;100.00;97603.72;5116529;28;20239;-65
2023/04/29 03:14:03;;;;;;;6.57;4.88;;;9.50;99.90;;;10.21;100.00;97605.63;5118457;29;20231;-67
2023/04/29 03:16:37;;;;;;;7.07;5.03;;;9.50;99.90;;;10.23;100.00;97609.16;5115901;28;20200;-65
2023/04/29 03:19:10;;;;;;;9.07;4.90;;;9.60;99.90;;;10.28;100.00;97612.88;5117571;28;20232;-66
2023/04/29 03:21:44;;;;;;;5.72;4.72;;;9.60;99.90;;;10.31;100.00;97610.50;5120119;28;20205;-62
2023/04/29 03:24:17;;;;;;;8.35;4.75;;;9.60;99.90;;;10.27;100.00;97600.00;5121990;28;20596;-64
2023/04/29 03:26:50;;;;;;;4.97;4.40;;;9.50;99.90;;;10.17;100.00;97603.72;5115640;29;20588;-65
2023/04/29 03:29:25;;;;;;;5.95;4.82;;;9.40;99.90;;;10.10;100.00;97604.16;5117985;29;20243;-63
2023/04/29 03:31:58;;;;;;;6.55;4.65;;;9.40;99.90;;;10.15;100.00;97602.75;5112395;29;20388;-63
2023/04/29 03:34:31;;;;;;;7.47;5.10;;;9.50;99.90;;;10.14;100.00;97598.44;5118236;28;20212;-63
2023/04/29 03:37:04;;;;;;;5.63;5.10;;;9.40;99.90;;;10.17;100.00;97597.75;5117421;28;20216;-64
2023/04/29 03:39:37;;;;;;;6.93;4.68;;;9.50;99.90;;;10.20;100.00;97592.78;5116385;28;20228;-66
2023/04/29 03:42:10;;;;;;;7.68;5.13;;;9.50;99.90;;;10.20;100.00;97593.66;5115017;28;20224;-67
2023/04/29 03:44:45;;;;;;;7.15;5.20;;;9.50;99.90;;;10.21;100.00;97600.53;5118173;28;20215;-67
2023/04/29 03:47:18;;;;;;;14.25;5.13;;;9.50;99.90;;;10.23;100.00;97601.50;5115085;28;20671;-66
2023/04/29 03:49:51;;;;;;;13.35;5.40;;;9.50;99.90;;;10.22;100.00;97586.97;5118918;28;20224;-66
2023/04/29 03:52:24;;;;;;;6.75;4.38;;;9.50;99.90;;;10.19;100.00;97586.81;5118790;28;20656;-66
2023/04/29 03:54:57;;;;;;;15.55;5.38;;;9.50;99.90;;;10.20;100.00;97593.66;5114602;28;20211;-65
2023/04/29 03:57:30;;;;;;;7.40;3.85;;;9.50;99.90;;;10.20;100.00;97593.66;5117508;28;20278;-64
2023/04/29 04:00:06;;;;;;;7.28;4.30;;;9.50;99.90;;;10.20;100.00;97593.66;5115081;28;20711;-66
2023/04/29 04:02:39;;;;;;;9.40;4.25;;;9.50;99.90;;;10.24;100.00;97587.91;5112689;28;20225;-67
2023/04/29 04:05:13;;;;;;;7.25;3.72;;;9.60;99.90;;;10.17;100.00;97583.28;5117830;28;20291;-65
2023/04/29 04:07:46;;;;;;;17.88;3.83;;;9.40;99.90;;;10.12;100.00;97588.13;5113708;28;20213;-65
2023/04/29 04:10:19;;;;;;;7.00;6.30;;;9.40;99.90;;;10.06;100.00;97594.59;5116289;28;20557;-66
2023/04/29 04:12:52;;;;;;;6.07;5.47;;;9.30;99.90;;;10.05;100.00;97588.63;5110332;28;20619;-66
2023/04/29 04:15:27;;;;;;;7.32;5.20;;;9.30;99.90;;;10.03;100.00;97589.31;5113299;28;20212;-66
2023/04/29 04:18:00;;;;;;;5.25;4.85;;;9.30;99.90;;;10.09;100.00;97597.31;5113379;28;20234;-64
2023/04/29 04:20:33;;;;;;;8.65;5.95;;;9.40;99.90;;;10.07;100.00;97602.34;5115806;28;20212;-64
2023/04/29 04:23:06;;;;;;;8.02;4.88;;;9.40;99.90;;;10.14;100.00;97598.44;5115109;28;20231;-64
2023/04/29 04:25:39;;;;;;;6.10;4.47;;;9.40;99.90;;;10.14;100.00;97601.00;5115894;29;20539;-64
2023/04/29 04:28:12;;;;;;;4.53;4.13;;;9.40;99.90;;;10.14;100.00;97608.66;5118396;28;22091;-64
2023/04/29 04:30:46;;;;;;;7.78;4.68;;;9.40;99.90;;;10.14;100.00;97613.78;5111726;28;20200;-64
2023/04/29 04:33:19;;;;;;;6.72;4.20;;;9.40;99.90;;;10.17;100.00;97619.03;5112285;28;20196;-64
2023/04/29 04:35:52;;;;;;;4.53;4.07;;;9.40;99.90;;;10.14;100.00;97626.53;5115878;28;20205;-64
2023/04/29 04:38:26;;;;;;;3.85;3.63;;;9.40;99.90;;;10.18;100.00;97625.03;5114234;28;20726;-65
2023/04/29 04:41:00;;;;;;;5.57;4.40;;;9.40;99.90;;;10.06;100.00;97626.09;5116181;28;20250;-64
2023/04/29 04:43:33;;;;;;;5.65;4.50;;;9.30;99.90;;;10.03;100.00;97625.94;5111718;28;20223;-64
2023/04/29 04:46:15;;;;;;;4.35;4.03;;;9.30;99.90;;;10.04;100.00;97634.47;5107462;28;20201;-63
2023/04/29 04:48:48;;;;;;;5.57;4.95;;;9.30;99.90;;;10.09;100.00;97635.63;5108271;28;20233;-67
2023/04/29 04:51:21;;;;;;;9.40;6.43;;;9.30;99.90;;;10.06;100.00;97638.88;5110956;28;20204;-65
2023/04/29 04:53:54;;;;;;;11.95;8.02;;;9.30;99.90;;;10.06;100.00;97638.88;5115053;28;20197;-66
2023/04/29 04:56:27;;;;;;;11.82;8.98;;;9.30;99.90;;;10.11;100.00;97642.56;5116371;28;20300;-66
2023/04/29 04:59:00;;;;;;;12.93;9.18;;;9.40;99.90;;;10.10;100.00;97648.47;5111687;28;20225;-66
2023/04/29 05:01:35;;;;;;;14.63;7.70;;;9.40;99.90;;;10.14;100.00;97645.28;5110212;28;20225;-65
2023/04/29 05:04:08;;;;;;;11.82;8.00;;;9.40;99.90;;;10.15;100.00;97651.28;5112732;28;20269;-66
2023/04/29 05:06:41;;;;;;;10.93;8.52;;;9.40;99.90;;;10.22;100.00;97647.41;5108947;28;20202;-65
2023/04/29 05:09:14;;;;;;;13.18;8.30;;;9.50;99.90;;;10.27;100.00;97649.44;5112381;28;20225;-67
2023/04/29 05:11:47;;;;;;;11.15;8.88;;;9.50;99.90;;;10.29;100.00;97655.50;5113316;28;20231;-66
2023/04/29 05:14:20;;;;;;;14.60;10.13;;;9.50;99.90;;;10.42;100.00;97656.19;5114491;28;20203;-66
2023/04/29 05:16:58;;;;;;;14.88;9.88;;;9.60;99.90;;;10.51;100.00;97659.22;5109690;28;20215;-66
2023/04/29 05:19:31;;;;;;;13.43;9.73;;;9.70;99.90;;;10.55;100.00;97656.03;5114937;28;20619;-67
2023/04/29 05:22:04;;;;;;;19.83;10.48;;;9.80;99.90;;;10.50;100.00;97665.13;5110994;28;20216;-64
2023/04/29 05:24:37;;;;;;;16.70;9.63;;;9.70;99.90;;;10.57;100.00;97665.53;5114668;28;20228;-64
2023/04/29 05:27:10;;;;;;;13.18;10.13;;;9.70;99.90;;;10.56;100.00;97670.59;5112599;28;20201;-62
2023/04/29 05:29:43;;;;;;;16.73;11.07;;;9.70;99.90;;;10.54;100.00;97677.28;5115032;28;20229;-64
2023/04/29 05:32:18;;;;;;;12.15;9.15;;;9.80;99.90;;;10.57;100.00;97672.34;5111922;28;20205;-64
2023/04/29 05:34:51;;;;;;;11.35;10.13;;;9.80;99.90;;;10.55;100.00;97679.03;5113987;28;20707;-63
2023/04/29 05:37:29;;;;;;;13.35;10.50;;;9.80;99.90;;;10.60;100.00;97690.38;5116680;28;20208;-64
2023/04/29 05:40:03;;;;;;;11.15;9.55;;;9.80;99.90;;;10.70;100.00;97691.75;5112134;28;20224;-64
2023/04/29 05:42:36;;;;;;;15.18;11.40;;;10.00;99.90;;;10.88;100.00;97699.53;5109225;28;20197;-64
2023/04/29 05:45:11;;;;;;;15.20;11.07;;;10.00;99.90;;;11.04;100.00;97696.97;5110743;28;20319;-66
2023/04/29 05:47:45;;;;;;;14.93;12.02;;;10.20;99.90;;;11.12;100.00;97703.38;5114124;28;20223;-66
2023/04/29 05:50:18;;;;;;;15.57;13.00;;;10.30;99.90;;;11.22;100.00;97707.31;5112707;28;20695;-66
2023/04/29 05:52:53;;;;;;;16.33;12.63;;;10.30;99.90;;;11.19;100.00;97710.59;5108148;28;20196;-67
2023/04/29 05:55:26;;;;;;;15.60;12.45;;;10.30;99.90;;;11.18;100.00;97716.47;5107176;28;20259;-63
2023/04/29 05:57:59;;;;;;;13.40;11.02;;;10.30;99.90;;;11.15;100.00;97711.22;5111368;28;20228;-64
2023/04/29 06:00:32;;;;;;;11.07;9.80;;;10.30;99.90;;;11.13;100.00;97722.16;5110901;28;20204;-64
2023/04/29 06:03:08;;;;;;;15.75;11.30;;;10.30;99.90;;;11.24;100.00;97716.78;5105956;28;20204;-65
2023/04/29 06:05:41;;;;;;;18.98;13.00;;;10.30;99.90;;;11.24;100.00;97716.78;5105582;28;20697;-66
2023/04/29 06:08:15;;;;;;;20.73;13.90;;;10.30;99.90;;;11.30;100.00;97721.34;5110288;28;20294;-65
2023/04/29 06:10:50;;;;;;;19.20;13.15;;;10.40;99.90;;;11.25;100.00;97721.13;5115522;28;20285;-65
2023/04/29 06:13:23;;;;;;;18.25;12.68;;;10.40;99.90;;;11.36;100.00;97736.16;5113271;28;20731;-66
2023/04/29 06:15:56;;;;;;;11.68;9.80;;;10.40;99.90;;;11.44;100.00;97729.75;5113199;28;20220;-65
2023/04/29 06:18:31;;;;;;;11.75;9.50;;;10.50;99.90;;;11.51;100.00;97731.84;5112916;28;20266;-65
2023/04/29 06:21:04;;;;;;;11.00;9.18;;;10.60;99.90;;;11.84;100.00;97726.66;5112366;28;20208;-65
2023/04/29 06:23:37;;;;;;;9.27;8.38;;;10.90;99.90;;;12.78;100.00;97738.06;5114812;28;20692;-65
2023/04/29 06:26:10;;;;;;;7.85;7.00;;;11.50;99.90;;;12.91;100.00;97742.06;5111140;28;20209;-66
2023/04/29 06:28:43;;;;;;;7.63;6.90;;;11.50;99.90;;;12.92;100.00;97754.09;5116301;28;20225;-65
2023/04/29 06:31:16;;;;;;;7.10;6.60;;;11.60;99.90;;;12.81;100.00;97750.16;5119129;28;20200;-64
2023/04/29 06:33:51;;;;;;;7.03;6.32;;;11.60;99.90;;;12.85;100.00;97754.63;5111414;28;20231;-65
2023/04/29 06:36:24;;;;;;;7.13;6.47;;;11.60;99.90;;;12.97;100.00;97757.75;5113460;28;20246;-64
2023/04/29 06:38:57;;;;;;;8.02;7.43;;;11.80;99.90;;;12.98;100.00;97763.75;5114785;28;20648;-65
2023/04/29 06:41:30;;;;;;;7.78;7.18;;;11.90;99.90;;;12.98;100.00;97768.88;5113168;28;20566;-65
2023/04/29 06:44:04;;;;;;;7.90;7.30;;;11.90;99.90;;;12.90;100.00;97773.66;5113443;28;20232;-65
2023/04/29 06:46:38;;;;;;;7.80;7.20;;;11.90;99.90;;;12.89;100.00;97766.78;5113405;28;20204;-65
2023/04/29 06:49:12;;;;;;;8.57;7.90;;;11.90;99.90;;;12.95;100.00;97768.75;5112638;28;20237;-65
2023/04/29 06:51:45;;;;;;;10.57;9.50;;;12.00;99.90;;;13.06;100.00;97771.00;5115251;28;20208;-65
2023/04/29 06:54:18;;;;;;;9.45;8.73;;;12.20;99.90;;;13.25;100.00;97770.19;5117631;28;20580;-65
2023/04/29 06:56:51;;;;;;;9.20;8.48;;;12.20;99.90;;;13.28;100.00;97777.16;5113543;28;20648;-65
2023/04/29 06:59:24;;;;;;;14.38;12.30;;;12.30;99.90;;;13.36;100.00;97777.47;5113866;28;20235;-64
2023/04/29 07:01:57;;;;;;;11.25;10.25;;;12.30;99.90;;;13.36;100.00;97783.47;5116515;29;20695;-65
2023/04/29 07:04:31;;;;;;;32.45;24.35;;;12.30;99.90;;;13.45;100.00;97778.78;5115777;28;20718;-65
2023/04/29 07:07:04;;;;;;;36.47;27.90;;;12.40;99.90;;;13.52;100.00;97775.66;5117370;28;20282;-66
2023/04/29 07:09:38;;;;;;;14.60;13.23;;;12.50;99.90;;;14.04;100.00;97777.00;5119734;28;20228;-65
2023/04/29 07:12:10;;;;;;;15.80;14.40;;;13.00;99.90;;;14.78;100.00;97777.47;5119488;28;20216;-65
2023/04/29 07:14:43;;;;;;;14.52;13.30;;;13.60;99.90;;;15.01;100.00;97778.34;5117732;28;20217;-65
2023/04/29 07:17:16;;;;;;;11.23;10.32;;;13.70;99.90;;;14.97;100.00;97786.78;5117466;28;20205;-65
2023/04/29 07:19:52;;;;;;;13.52;12.32;;;13.60;99.90;;;14.87;100.00;97786.41;5113847;28;20669;-65
2023/04/29 07:22:25;;;;;;;13.82;12.68;;;13.60;99.90;;;14.85;100.00;97798.38;5111798;28;20204;-66
2023/04/29 07:24:58;;;;;;;12.40;11.45;;;13.60;99.90;;;14.80;100.00;97789.59;5117301;28;20228;-66
2023/04/29 07:27:34;;;;;;;11.88;10.98;;;13.60;99.90;;;15.16;100.00;97794.38;5113384;28;20209;-65
2023/04/29 07:30:09;;;;;;;11.95;11.05;;;13.70;99.90;;;15.30;100.00;97798.34;5110993;28;20231;-65
2023/04/29 07:32:42;;;;;;;10.65;9.93;;;13.90;99.90;;;15.39;100.00;97792.66;5114966;28;20214;-64
2023/04/29 07:35:16;;;;;;;9.32;8.70;;;14.00;99.90;;;15.57;100.00;97792.47;5110844;28;20685;-66
2023/04/29 07:37:49;;;;;;;9.50;8.73;;;14.10;99.90;;;15.72;100.00;97798.22;5112992;28;20679;-66
2023/04/29 07:40:23;;;;;;;8.93;8.32;;;14.20;99.90;;;16.55;100.00;97806.19;5112537;28;20212;-65
2023/04/29 07:42:56;;;;;;;8.55;7.85;;;14.60;99.90;;;16.97;100.00;97803.28;5113789;28;20233;-66
2023/04/29 07:45:29;;;;;;;8.15;7.63;;;15.10;99.90;;;16.92;100.00;97812.56;5110297;28;20225;-66
2023/04/29 07:48:02;;;;;;;8.70;7.90;;;15.20;99.90;;;16.49;100.00;97811.16;5114957;28;20232;-67
2023/04/29 07:50:37;;;;;;;7.30;6.80;;;15.10;99.90;;;16.40;100.00;97808.28;5110540;28;20295;-64
2023/04/29 07:53:10;;;;;;;7.80;7.20;;;15.00;99.90;;;16.18;100.00;97810.13;5111906;28;20289;-66
2023/04/29 07:55:43;;;;;;;6.85;6.35;;;14.70;99.90;;;16.04;100.00;97813.06;5110811;28;20762;-66
2023/04/29 07:58:16;;;;;;;7.25;6.75;;;14.70;99.90;;;16.05;100.00;97815.69;5114314;28;20228;-66
2023/04/29 08:00:49;;;;;;;7.55;7.05;;;14.70;99.90;;;16.14;100.00;97818.59;5114210;28;20213;-67
2023/04/29 08:03:22;;;;;;;7.05;6.50;;;14.70;99.90;;;16.03;100.00;97824.22;5116609;28;20212;-65
2023/04/29 08:06:02;;;;;;;6.80;6.30;;;14.60;99.90;;;15.74;100.00;97827.50;5110992;28;20234;-65
2023/04/29 08:08:35;;;;;;;6.60;6.20;;;14.50;99.90;;;15.53;100.00;97826.66;5114047;28;20229;-66
2023/04/29 08:11:08;;;;;;;6.40;5.80;;;14.40;99.90;;;15.44;100.00;97826.34;5114995;28;20212;-65
2023/04/29 08:13:41;;;;;;;6.25;5.85;;;14.30;99.90;;;15.36;100.00;97833.75;5113395;28;20209;-66
2023/04/29 08:16:14;;;;;;;6.05;5.65;;;14.20;99.90;;;15.42;100.00;97827.97;5112552;28;20640;-66
2023/04/29 08:18:47;;;;;;;6.30;5.60;;;14.20;99.90;;;15.55;100.00;97830.19;5139813;28;20230;-64
2023/04/29 08:21:22;;;;;;;6.32;5.93;;;14.30;99.90;;;15.71;100.00;97827.41;5113913;28;20204;-65
2023/04/29 08:23:55;;;;;;;5.80;5.40;;;14.50;99.90;;;15.67;100.00;97835.78;5118482;28;20202;-66
2023/04/29 08:26:29;;;;;;;5.45;5.10;;;14.60;99.90;;;15.89;100.00;97836.59;5114505;28;20228;-65
2023/04/29 08:29:02;;;;;;;5.40;5.05;;;14.60;99.90;;;15.96;100.00;97836.84;5117964;28;20234;-65
2023/04/29 08:31:35;;;;;;;5.13;4.82;;;14.70;99.90;;;15.87;100.00;97833.09;5114519;28;20219;-66
2023/04/29 08:34:08;;;;;;;5.35;4.90;;;14.60;99.90;;;15.55;100.00;97836.22;5115614;28;20201;-65
2023/04/29 08:36:43;;;;;;;4.75;4.45;;;14.50;99.90;;;15.52;100.00;97835.22;5118835;28;20266;-66
2023/04/29 08:39:16;;;;;;;5.10;4.70;;;14.40;99.90;;;15.67;100.00;97837.47;5118307;28;20334;-66
2023/04/29 08:41:50;;;;;;;5.38;4.97;;;14.50;99.90;;;15.67;100.00;97829.75;5117961;28;20274;-65
2023/04/29 08:44:25;;;;;;;5.25;4.75;;;14.50;99.90;;;15.68;100.00;97842.75;5118928;28;20279;-66
2023/04/29 08:47:00;;;;;;;4.38;3.97;;;14.60;99.90;;;15.70;100.00;97840.22;5114269;28;20211;-65
2023/04/29 08:49:33;;;;;;;4.63;4.25;;;14.50;99.90;;;15.81;100.00;97838.91;5118687;28;20217;-65
2023/04/29 08:52:08;;;;;;;3.95;3.55;;;14.60;99.90;;;15.72;100.00;97842.03;5118234;28;20574;-65
2023/04/29 08:54:41;;;;;;;4.38;4.07;;;14.50;99.90;;;15.83;100.00;97828.66;5110242;28;20298;-65
2023/04/29 08:57:15;;;;;;;4.40;4.00;;;14.50;99.90;;;15.68;100.00;97836.69;5118905;28;20672;-66
2023/04/29 08:59:48;;;;;;;3.80;3.50;;;14.50;99.90;;;15.59;100.00;97847.50;5115795;28;20698;-65
2023/04/29 09:02:23;;;;;;;4.22;3.80;;;14.40;99.90;;;15.62;100.00;97842.47;5114784;28;20208;-65
2023/04/29 09:05:10;;;;;;;4.57;4.22;;;14.50;99.90;;;15.67;100.00;97846.09;5112150;28;20232;-65
2023/04/29 09:07:46;;;;;;;4.50;4.20;;;14.40;99.90;;;15.64;100.00;97840.81;5118020;28;20247;-66
2023/04/29 09:10:20;;;;;;;4.40;3.90;;;14.40;99.90;;;15.64;100.00;97840.81;5111583;28;20220;-65
2023/04/29 09:12:57;;;;;;;4.28;3.70;;;14.50;99.90;;;15.72;100.00;97844.59;5117684;28;20678;-65
2023/04/29 09:15:35;;;;;;;4.13;3.83;;;14.50;99.90;;;15.89;100.00;97836.59;5118594;28;20208;-65
2023/04/29 09:18:08;;;;;;;4.35;4.05;;;14.70;99.90;;;15.90;100.00;97848.66;5115987;28;20286;-65
2023/04/29 09:20:41;;;;;;;4.45;4.05;;;14.70;99.90;;;15.94;100.00;97847.97;5119110;28;20208;-65
2023/04/29 09:23:16;;;;;;;3.85;3.55;;;14.70;99.90;;;15.88;100.00;97855.44;5116456;28;21646;-65
2023/04/29 09:25:56;;;;;;;4.13;3.72;;;14.70;99.90;;;15.93;100.00;97846.19;5117697;28;20211;-65
2023/04/29 09:28:29;;;;;;;4.82;4.40;;;14.70;99.90;;;16.15;100.00;97846.13;5116650;28;20235;-65
2023/04/29 09:31:05;;;;;;;4.95;4.55;;;14.80;99.90;;;16.29;100.00;97850.91;5118666;28;20716;-65
2023/04/29 09:33:53;;;;;;;4.30;4.00;;;14.90;99.90;;;16.40;100.00;97847.00;5108711;28;20197;-65
2023/04/29 09:36:41;;;;;;;4.38;3.50;;;15.00;99.90;;;16.49;100.00;97852.44;5122118;28;20220;-64
2023/04/29 09:39:17;;;;;;;4.10;3.80;;;15.20;99.90;;;16.65;100.00;97857.31;5108151;28;20225;-65
2023/04/29 09:42:01;;;;;;;3.80;3.50;;;15.30;99.90;;;16.71;92.19;97855.72;5115452;28;20813;-66
2023/04/29 09:44:35;;;;;;;3.80;3.50;;;15.40;99.90;;;16.64;96.19;97860.69;5113472;28;20236;-66
2023/04/29 09:47:10;;;;;;;4.47;4.07;;;15.20;99.90;;;16.45;96.30;97860.88;5112677;28;20227;-66
2023/04/29 09:49:45;;;;;;;12.63;10.77;;;15.00;99.90;;;16.33;100.00;97857.91;5112809;28;20228;-66
2023/04/29 09:52:19;;;;;;;7.68;6.97;;;15.00;99.90;;;16.21;94.21;97861.81;5118223;28;20295;-66
2023/04/29 09:55:06;;;;;;;5.93;5.40;;;14.90;99.90;;;16.19;100.00;97866.03;5107848;28;20215;-66
2023/04/29 09:57:41;;;;;;;4.22;3.72;;;14.90;99.90;;;16.27;100.00;97868.88;5108153;28;20209;-68
2023/04/29 10:00:17;;;;;;;4.63;4.22;;;14.90;99.90;;;16.14;100.00;97864.16;5110208;28;20232;-66
2023/04/29 10:02:54;;;;;;;13.77;11.18;;;14.90;99.90;;;16.12;100.00;97869.22;5114508;28;20208;-65
2023/04/29 10:05:29;;;;;;;8.80;7.75;;;14.90;99.90;;;16.11;100.00;97874.31;5110124;28;20668;-66
2023/04/29 10:08:03;;;;;;;4.55;4.20;;;14.90;99.90;;;16.23;100.00;97879.06;5108591;28;20704;-67
2023/04/29 10:10:38;;;;;;;17.38;13.80;;;14.90;99.90;;;16.22;100.00;97873.00;5110131;28;20221;-66
2023/04/29 10:13:11;;;;;;;43.95;33.00;;;15.00;99.90;;;16.24;100.00;97875.66;5109652;28;20204;-67
2023/04/29 10:15:58;;;;;;;57.58;40.03;;;15.00;99.90;;;16.30;98.00;97876.72;5112375;28;20217;-66
2023/04/29 10:18:37;;;;;;;7.20;6.50;;;15.00;99.90;;;16.23;96.75;97871.31;5110622;28;20735;-66
2023/04/29 10:21:11;;;;;;;7.45;6.80;;;14.90;99.90;;;16.07;96.64;97867.31;5107792;28;20220;-66
2023/04/29 10:23:44;;;;;;;5.40;4.88;;;14.90;99.90;;;16.02;99.81;97881.72;5113248;28;20211;-66
2023/04/29 10:26:20;;;;;;;4.22;3.83;;;14.90;99.90;;;16.00;100.00;97868.81;5114607;28;20227;-65
2023/04/29 10:28:56;;;;;;;6.05;5.20;;;14.70;99.90;;;15.86;100.00;97873.47;5112082;28;20628;-67
2023/04/29 10:31:30;;;;;;;4.70;3.85;;;14.80;99.90;;;15.74;100.00;97879.03;5107408;28;20209;-66
2023/04/29 10:34:03;;;;;;;4.13;3.83;;;14.60;99.90;;;15.61;97.88;97875.91;5109529;28;20244;-67
2023/04/29 10:36:37;;;;;;;4.15;3.67;;;14.60;99.90;;;15.64;99.15;97876.91;5110733;28;20204;-66
2023/04/29 10:39:24;;;;;;;4.50;4.20;;;14.60;99.90;;;15.66;95.73;97871.81;5113077;28;20780;-66
2023/04/29 10:41:58;;;;;;;3.63;3.38;;;14.60;99.90;;;15.63;97.94;97877.72;5124976;28;20205;-66